首页
METAR-TAF:

METAR-TAF

机场 :

阿尔巴尼, 喬治亞, 美国

纬度: 31-32-08N, 经度: 084-11-40W, 海拔: 60米

当前天气观测

该预报发布于1小时和0分钟前的09:00 UTC
风速7节,风向东转东北
温度 23°C
湿度 89%
气压 1014 hPa
能見度: 16.1公里
多云层高于2000英尺
多云层高于7500英尺
阴天层高于9000英尺

METAR: KABY 260900Z AUTO 06007KT 10SM BKN020 BKN075 OVC090 23/21 A2995 RMK AO2 T02280211

时间: 06:00 (10:00 UTC)

预报

该预报发布于4小时和32分钟前的05:28 UTC
预报有效从26日的 06点(UTC)到 27日的 06点(UTC)
风速7节,风向东北
能見度: 10公里
散云层高于5000英尺
从 26日的 1000点(UTC)
风速8节,风向
能見度: 10公里
多云层高于2500英尺
从 26日的 1800点(UTC)
风速10节,风向
能見度: 10公里
多云层高于2500英尺, 积雨云.
附近有雷暴
从 27日的 0000点(UTC)
风速11节,风向
能見度: 10公里
多云层高于1500英尺

TAF: KABY 260528Z 2606/2706 05007KT P6SM SCT050 FM261000 08008KT P6SM BKN025 FM261800 09010KT P6SM VCTS BKN025CB FM270000 08011KT P6SM BKN015

超过4000个机场的气象观测和天气预报(METAR&TAF报告)。

可查询的气象台以黄色和红色小点在地图上表示。

将鼠标移到小点上方,可查看气象台名称。

然后点击查看天气观测和预报。

如需切换地图:点击带黑十字的绿色按钮放大地图;点击带横线的绿色按钮缩小地图;或者点击绿色箭头查看邻近地区的地图。


METAR-TAF: